createdAt,value
2022-10-10T00:01:39.994Z,13.04
2022-10-10T00:16:41.486Z,13.13
2022-10-10T00:31:42.924Z,12.76
2022-10-10T00:46:44.433Z,12.87
2022-10-10T01:01:46.585Z,12.12
2022-10-10T01:16:51.023Z,12.40
2022-10-10T01:31:55.951Z,12.93
2022-10-10T01:46:58.071Z,13.30
2022-10-10T02:02:22.590Z,13.31
2022-10-10T02:17:25.713Z,13.34
2022-10-10T02:32:47.573Z,12.94
2022-10-10T02:47:49.143Z,12.66
2022-10-10T03:02:50.953Z,12.32
2022-10-10T03:17:52.582Z,13.11
2022-10-10T03:32:54.218Z,13.46
2022-10-10T03:47:55.730Z,11.49
2022-10-10T04:02:57.187Z,11.26
2022-10-10T04:17:59.069Z,11.91
2022-10-10T04:33:00.549Z,11.41
2022-10-10T04:48:02.045Z,12.69
2022-10-10T05:03:03.586Z,13.20
2022-10-10T05:18:05.034Z,16.61
2022-10-10T05:33:06.491Z,16.44
2022-10-10T05:48:07.940Z,16.11
2022-10-10T06:03:13.014Z,16.71
2022-10-10T06:18:14.453Z,16.45
2022-10-10T06:33:16.372Z,17.85
2022-10-10T06:48:17.848Z,17.35
2022-10-10T07:03:19.996Z,18.07
2022-10-10T07:18:21.917Z,18.57
2022-10-10T07:33:23.393Z,17.08
2022-10-10T07:48:24.971Z,17.84
2022-10-10T08:03:26.452Z,17.53
2022-10-10T08:18:27.928Z,19.15
2022-10-10T08:33:29.442Z,19.29
2022-10-10T08:48:31.387Z,21.08
2022-10-10T09:03:32.837Z,20.05
2022-10-10T09:18:52.766Z,19.52
2022-10-10T09:34:14.505Z,20.92
2022-10-10T09:49:17.748Z,21.21
2022-10-10T10:04:28.833Z,19.95
2022-10-10T10:19:35.702Z,20.33
2022-10-10T10:34:37.250Z,20.23
2022-10-10T10:49:48.727Z,20.31
2022-10-10T11:05:22.508Z,19.84
2022-10-10T11:20:24.934Z,20.94
2022-10-10T11:35:26.388Z,20.55
2022-10-10T11:50:29.068Z,20.63
2022-10-10T12:05:31.243Z,20.29
2022-10-10T12:20:34.289Z,20.82
2022-10-10T12:35:35.834Z,21.24
2022-10-10T12:50:40.172Z,20.76
2022-10-10T13:05:41.857Z,20.59
2022-10-10T13:20:43.364Z,20.09
2022-10-10T13:35:46.099Z,20.17
2022-10-10T13:50:53.848Z,20.74
2022-10-10T14:05:55.581Z,20.17
2022-10-10T14:20:57.056Z,20.09
2022-10-10T14:35:59.560Z,20.35
2022-10-10T14:51:01.477Z,20.08
2022-10-10T15:06:22.528Z,19.75
2022-10-10T15:21:24.025Z,19.61
2022-10-10T15:36:25.676Z,19.02
2022-10-10T15:51:28.118Z,18.23
2022-10-10T16:06:29.639Z,17.77
2022-10-10T16:21:33.506Z,17.38
2022-10-10T16:36:36.961Z,17.12
2022-10-10T16:51:38.412Z,16.99
2022-10-10T17:06:40.062Z,17.29
2022-10-10T17:21:41.569Z,17.36
2022-10-10T17:36:43.104Z,17.65
2022-10-10T17:51:44.640Z,17.89
2022-10-10T18:06:46.153Z,18.11
2022-10-10T18:21:49.036Z,17.33
2022-10-10T18:36:50.732Z,17.29
2022-10-10T18:51:52.242Z,17.08
2022-10-10T19:06:57.671Z,17.20
2022-10-10T19:21:59.501Z,17.48
2022-10-10T19:37:00.958Z,16.66
2022-10-10T19:52:02.424Z,16.63
2022-10-10T20:07:03.939Z,16.68
2022-10-10T20:22:05.572Z,16.80
2022-10-10T20:37:07.132Z,16.41
2022-10-10T20:52:08.725Z,16.15
2022-10-10T21:07:10.167Z,15.87
2022-10-10T21:22:11.603Z,16.07
2022-10-10T21:37:13.080Z,16.32
2022-10-10T21:52:14.572Z,15.76
2022-10-10T22:16:08.445Z,15.11
2022-10-10T22:31:11.506Z,15.27
2022-10-10T22:46:13.053Z,16.21
2022-10-10T23:01:16.171Z,15.99
2022-10-10T23:16:17.785Z,15.83
2022-10-10T23:31:19.254Z,15.38
2022-10-10T23:46:20.728Z,15.02
